Rechercher aéroport 
image banner adimage banner adimage banner ad
image banner ad

4CL8 - Hanford Community Medical Center Helistop

Situé à Hanford, United States

ICAO - 4CL8, IATA -

Données fournies par Airmate  

Information générale

Coordonnées: N36°19'47" W119°39'34"
Élévation : 251 feet MSL.
Variation magnétique : 15° East
Voir autres Aéroports à California

Données opérationnelles

Special qualification required
Heure actuelle UTC:
Heure actuelle locale:
Météo à : KHJO - Hanford Muni ( 3 km )
METAR: KHJO 251053Z AUTO 00000KT 10SM CLR 21/15 A2987 RMK AO2 SLP113 T02060150
Voir NOTAMs / SUP AIP / TFR affectant cet aéroport [VIEW]
Fréquences de communication: [VIEW]

Pistes:

Coordonnées de l'aéroport

Adresse: Hanford United States

Vue satellite de 4CL8